createdAt,value
2023-10-14T00:02:28.238Z,13.45
2023-10-14T00:04:56.864Z,13.48
2023-10-14T00:07:26.940Z,13.47
2023-10-14T00:09:58.793Z,13.44
2023-10-14T00:12:29.796Z,13.39
2023-10-14T00:15:04.953Z,13.40
2023-10-14T00:17:42.878Z,13.43
2023-10-14T00:20:11.942Z,13.45
2023-10-14T00:22:40.708Z,13.49
2023-10-14T00:25:20.442Z,13.49
2023-10-14T00:27:51.935Z,13.56
2023-10-14T00:30:21.744Z,13.58
2023-10-14T00:32:51.448Z,13.61
2023-10-14T00:35:21.231Z,13.64
2023-10-14T00:37:49.604Z,13.67
2023-10-14T00:40:23.698Z,13.69
2023-10-14T00:42:53.230Z,13.74
2023-10-14T00:45:22.708Z,13.78
2023-10-14T00:47:52.497Z,13.80
2023-10-14T00:50:34.847Z,13.85
2023-10-14T00:53:07.151Z,13.87
2023-10-14T00:55:53.144Z,13.90
2023-10-14T00:58:24.711Z,13.91
2023-10-14T01:01:02.237Z,13.90
2023-10-14T01:03:33.178Z,13.94
2023-10-14T01:06:08.571Z,13.99
2023-10-14T01:08:39.634Z,14.01
2023-10-14T01:11:08.939Z,14.02
2023-10-14T01:13:37.299Z,14.02
2023-10-14T01:16:10.207Z,14.03
2023-10-14T01:18:42.715Z,14.01
2023-10-14T01:21:10.980Z,13.98
2023-10-14T01:23:42.388Z,13.95
2023-10-14T01:26:11.382Z,13.93
2023-10-14T01:28:45.837Z,13.92
2023-10-14T01:31:33.180Z,13.87
2023-10-14T01:34:03.305Z,13.90
2023-10-14T01:36:38.955Z,13.90
2023-10-14T01:39:13.142Z,13.94
2023-10-14T01:41:41.595Z,13.97
2023-10-14T01:44:11.273Z,13.98
2023-10-14T01:46:41.690Z,13.99
2023-10-14T01:49:18.228Z,14.02
2023-10-14T01:51:50.405Z,14.03
2023-10-14T01:54:20.177Z,14.06
2023-10-14T01:56:52.647Z,14.07
2023-10-14T01:59:24.649Z,14.07
2023-10-14T02:01:59.022Z,14.10
2023-10-14T02:04:28.329Z,14.13
2023-10-14T02:07:14.515Z,14.16
2023-10-14T02:09:44.160Z,14.18
2023-10-14T02:12:13.187Z,14.21
2023-10-14T02:14:45.572Z,14.21
2023-10-14T02:17:14.012Z,14.23
2023-10-14T02:19:43.169Z,14.26
2023-10-14T02:22:11.986Z,14.28
2023-10-14T02:24:42.258Z,14.24
2023-10-14T02:27:14.022Z,14.29
2023-10-14T02:29:44.744Z,14.32
2023-10-14T02:32:14.368Z,14.36
2023-10-14T02:34:45.497Z,14.34
2023-10-14T02:37:16.401Z,14.36
2023-10-14T02:39:45.773Z,14.38
2023-10-14T02:42:16.842Z,14.43
2023-10-14T02:44:47.680Z,14.46
2023-10-14T02:47:18.632Z,14.49
2023-10-14T02:49:47.438Z,14.51
2023-10-14T02:52:20.079Z,14.52
2023-10-14T02:54:55.777Z,14.54
2023-10-14T02:57:25.967Z,14.56
2023-10-14T02:59:57.483Z,14.56
2023-10-14T03:02:49.561Z,14.57
2023-10-14T03:05:34.085Z,14.59
2023-10-14T03:08:10.197Z,14.61
2023-10-14T03:10:41.126Z,14.64
2023-10-14T03:13:13.441Z,14.65
2023-10-14T03:15:44.119Z,14.60
2023-10-14T03:18:18.156Z,14.62
2023-10-14T03:21:00.085Z,14.61
2023-10-14T03:23:29.877Z,14.65
2023-10-14T03:26:07.027Z,14.72
2023-10-14T03:28:38.808Z,14.75
2023-10-14T03:31:09.921Z,14.76
2023-10-14T03:33:44.209Z,14.76
2023-10-14T03:36:17.079Z,14.72
2023-10-14T03:38:55.929Z,14.72
2023-10-14T03:41:31.438Z,14.72
2023-10-14T03:44:10.712Z,14.73
2023-10-14T03:46:43.978Z,14.71
2023-10-14T03:49:22.880Z,14.69
2023-10-14T03:51:53.693Z,14.69
2023-10-14T03:54:25.572Z,14.60
2023-10-14T03:56:54.011Z,14.53
2023-10-14T03:59:25.092Z,14.51
2023-10-14T04:01:58.906Z,14.51
2023-10-14T04:04:28.528Z,14.55
2023-10-14T04:07:12.134Z,14.57
2023-10-14T04:09:41.635Z,14.56
2023-10-14T04:12:13.678Z,14.55
2023-10-14T04:14:43.185Z,14.54
2023-10-14T04:17:19.753Z,14.51
2023-10-14T04:19:54.711Z,14.51
2023-10-14T04:22:32.931Z,14.52
2023-10-14T04:25:20.054Z,14.51
2023-10-14T04:28:18.841Z,14.46
2023-10-14T04:30:53.188Z,14.45
2023-10-14T04:33:35.250Z,14.49
2023-10-14T04:36:37.607Z,14.50
2023-10-14T04:39:16.394Z,14.48
2023-10-14T04:42:18.063Z,14.49
2023-10-14T04:44:55.203Z,14.50
2023-10-14T04:47:38.244Z,14.54
2023-10-14T04:50:14.460Z,14.57
2023-10-14T04:52:45.364Z,14.58
2023-10-14T04:55:26.554Z,14.59
2023-10-14T04:58:10.953Z,14.67
2023-10-14T05:00:44.135Z,14.58
2023-10-14T05:03:14.832Z,14.62
2023-10-14T05:05:51.209Z,14.62
2023-10-14T05:08:22.743Z,14.68
2023-10-14T05:10:52.647Z,14.60
2023-10-14T05:13:26.570Z,14.55
2023-10-14T05:16:04.610Z,14.65
2023-10-14T05:18:36.848Z,14.80
2023-10-14T05:21:13.924Z,14.90
2023-10-14T05:23:43.416Z,14.94
2023-10-14T05:26:15.567Z,15.08
2023-10-14T05:28:48.465Z,15.13
2023-10-14T05:31:17.650Z,15.20
2023-10-14T05:33:50.102Z,15.23
2023-10-14T05:36:18.421Z,15.30
2023-10-14T05:38:46.710Z,15.34
2023-10-14T05:41:15.733Z,15.38
2023-10-14T05:43:43.860Z,15.45
2023-10-14T05:46:13.773Z,15.60
2023-10-14T05:48:42.198Z,15.65
2023-10-14T05:51:12.169Z,15.80
2023-10-14T05:53:40.573Z,15.91
2023-10-14T05:56:13.908Z,16.28
2023-10-14T05:58:42.296Z,16.37
2023-10-14T06:01:11.333Z,16.58
2023-10-14T06:03:40.723Z,16.68
2023-10-14T06:06:11.164Z,16.83
2023-10-14T06:08:41.843Z,17.03
2023-10-14T06:11:11.377Z,17.13
2023-10-14T06:13:39.482Z,17.22
2023-10-14T06:16:11.038Z,17.34
2023-10-14T06:18:40.115Z,17.49
2023-10-14T06:21:12.323Z,17.52
2023-10-14T06:23:48.181Z,17.54
2023-10-14T06:26:18.480Z,17.54
2023-10-14T06:28:46.857Z,17.59
2023-10-14T06:31:15.177Z,17.68
2023-10-14T06:33:43.474Z,17.72
2023-10-14T06:36:15.341Z,17.82
2023-10-14T06:38:46.375Z,17.84
2023-10-14T06:41:18.150Z,17.89
2023-10-14T06:43:48.759Z,17.97
2023-10-14T06:46:18.595Z,18.10
2023-10-14T06:48:53.552Z,18.10
2023-10-14T06:51:22.519Z,18.17
2023-10-14T06:53:53.612Z,18.26
2023-10-14T06:56:22.912Z,18.30
2023-10-14T06:58:52.815Z,18.33
2023-10-14T07:01:23.125Z,18.38
2023-10-14T07:03:53.560Z,18.37
2023-10-14T07:06:23.004Z,18.43
2023-10-14T07:08:52.140Z,18.51
2023-10-14T07:11:22.595Z,18.53
2023-10-14T07:13:51.859Z,18.54
2023-10-14T07:16:21.725Z,18.55
2023-10-14T07:18:49.999Z,18.58
2023-10-14T07:21:20.997Z,18.61
2023-10-14T07:23:51.776Z,18.61
2023-10-14T07:26:21.622Z,18.61
2023-10-14T07:28:52.921Z,18.64
2023-10-14T07:31:24.946Z,18.64
2023-10-14T07:33:54.741Z,18.65
2023-10-14T07:36:23.721Z,18.66
2023-10-14T07:38:51.997Z,18.61
2023-10-14T07:41:23.278Z,18.64
2023-10-14T07:43:51.443Z,18.63
2023-10-14T07:46:19.690Z,18.67
2023-10-14T07:48:48.625Z,18.63
2023-10-14T07:51:29.374Z,18.64
2023-10-14T07:53:58.647Z,18.63
2023-10-14T07:56:28.384Z,18.68
2023-10-14T07:58:56.906Z,18.65
2023-10-14T08:01:26.728Z,18.61
2023-10-14T08:03:58.133Z,18.63
2023-10-14T08:06:27.939Z,18.63
2023-10-14T08:08:56.365Z,18.65
2023-10-14T08:11:24.478Z,18.70
2023-10-14T08:13:53.924Z,18.73
2023-10-14T08:16:23.633Z,18.71
2023-10-14T08:18:55.289Z,18.72
2023-10-14T08:21:24.442Z,18.71
2023-10-14T08:23:52.685Z,18.71
2023-10-14T08:26:22.164Z,18.74
2023-10-14T08:28:50.738Z,18.72
2023-10-14T08:31:20.718Z,18.77
2023-10-14T08:33:49.228Z,18.77
2023-10-14T08:36:17.590Z,18.77
2023-10-14T08:38:48.871Z,18.79
2023-10-14T08:41:17.203Z,18.82
2023-10-14T08:43:50.868Z,18.86
2023-10-14T08:46:25.180Z,18.91
2023-10-14T08:48:55.224Z,18.90
2023-10-14T08:51:24.046Z,18.87
2023-10-14T08:53:54.705Z,18.91
2023-10-14T08:56:23.893Z,18.97
2023-10-14T08:58:52.050Z,18.96
2023-10-14T09:01:23.900Z,18.94
2023-10-14T09:03:52.353Z,19.00
2023-10-14T09:06:20.960Z,19.01
2023-10-14T09:08:51.383Z,19.03
2023-10-14T09:11:34.342Z,19.04
2023-10-14T09:14:04.464Z,19.08
2023-10-14T09:16:35.660Z,19.12
2023-10-14T09:19:06.494Z,19.09
2023-10-14T09:21:44.022Z,19.14
2023-10-14T09:24:12.330Z,19.20
2023-10-14T09:26:41.222Z,19.23
2023-10-14T09:29:11.112Z,19.25
2023-10-14T09:31:42.093Z,19.28
2023-10-14T09:34:24.039Z,19.33
2023-10-14T09:36:53.471Z,19.38
2023-10-14T09:39:26.199Z,19.45
2023-10-14T09:41:56.139Z,19.53
2023-10-14T09:44:24.473Z,19.54
2023-10-14T09:46:55.150Z,19.54
2023-10-14T09:49:24.483Z,19.51
2023-10-14T09:51:55.223Z,19.54
2023-10-14T09:54:25.004Z,19.54
2023-10-14T09:56:54.144Z,19.60
2023-10-14T09:59:23.968Z,19.64
2023-10-14T10:01:54.828Z,19.65
2023-10-14T10:04:25.861Z,19.67
2023-10-14T10:07:06.226Z,19.74
2023-10-14T10:10:03.044Z,19.73
2023-10-14T10:12:32.875Z,19.76
2023-10-14T10:15:04.035Z,19.81
2023-10-14T10:17:35.603Z,19.78
2023-10-14T10:20:10.361Z,19.74
2023-10-14T10:22:44.366Z,19.77
2023-10-14T10:25:15.905Z,19.77
2023-10-14T10:27:44.869Z,19.80
2023-10-14T10:30:15.334Z,19.79
2023-10-14T10:32:49.948Z,19.79
2023-10-14T10:35:19.431Z,19.81
2023-10-14T10:37:49.973Z,19.88
2023-10-14T10:40:27.345Z,19.91
2023-10-14T10:42:57.353Z,19.95
2023-10-14T10:45:31.113Z,20.03
2023-10-14T10:48:04.447Z,19.97
2023-10-14T10:50:36.811Z,19.97
2023-10-14T10:53:21.315Z,19.83
2023-10-14T10:55:52.937Z,19.82
2023-10-14T10:58:23.212Z,19.80
2023-10-14T11:00:53.157Z,19.86
2023-10-14T11:03:24.770Z,19.87
2023-10-14T11:05:54.747Z,19.76
2023-10-14T11:08:24.298Z,19.74
2023-10-14T11:10:52.909Z,19.81
2023-10-14T11:13:21.332Z,19.88
2023-10-14T11:15:51.771Z,19.94
2023-10-14T11:18:37.725Z,19.95
2023-10-14T11:21:08.747Z,19.89
2023-10-14T11:23:40.656Z,19.89
2023-10-14T11:26:12.620Z,19.90
2023-10-14T11:28:46.503Z,19.85
2023-10-14T11:31:15.596Z,19.89
2023-10-14T11:33:47.173Z,19.97
2023-10-14T11:36:19.293Z,20.09
2023-10-14T11:38:49.463Z,20.14
2023-10-14T11:41:18.908Z,20.05
2023-10-14T11:43:47.391Z,20.06
2023-10-14T11:46:16.167Z,20.08
2023-10-14T11:48:47.210Z,20.05
2023-10-14T11:51:22.457Z,20.03
2023-10-14T11:53:54.956Z,20.03
2023-10-14T11:56:22.374Z,20.11
2023-10-14T11:58:52.401Z,20.19
2023-10-14T12:01:25.478Z,20.14
2023-10-14T12:03:54.356Z,20.15
2023-10-14T12:06:24.166Z,20.14
2023-10-14T12:08:55.238Z,20.22
2023-10-14T12:11:23.455Z,20.25
2023-10-14T12:13:52.877Z,20.30
2023-10-14T12:16:22.868Z,20.29
2023-10-14T12:18:55.782Z,20.28
2023-10-14T12:21:25.730Z,20.21
2023-10-14T12:23:56.357Z,20.19
2023-10-14T12:26:38.012Z,20.15
2023-10-14T12:29:11.363Z,20.07
2023-10-14T12:31:54.001Z,20.00
2023-10-14T12:34:26.731Z,19.95
2023-10-14T12:36:56.257Z,19.91
2023-10-14T12:39:28.124Z,19.88
2023-10-14T12:42:04.742Z,19.86
2023-10-14T12:44:36.410Z,19.89
2023-10-14T12:47:12.519Z,19.92
2023-10-14T12:49:41.268Z,19.85
2023-10-14T12:52:14.808Z,19.85
2023-10-14T12:54:43.116Z,19.81
2023-10-14T12:57:13.154Z,19.85
2023-10-14T12:59:42.370Z,19.91
2023-10-14T13:02:11.209Z,19.91
2023-10-14T13:04:40.337Z,19.88
2023-10-14T13:07:10.783Z,19.85
2023-10-14T13:09:40.046Z,19.75
2023-10-14T13:12:17.278Z,19.70
2023-10-14T13:14:46.428Z,19.75
2023-10-14T13:17:14.709Z,19.69
2023-10-14T13:19:43.226Z,19.68
2023-10-14T13:22:14.966Z,19.66
2023-10-14T13:24:51.596Z,19.49
2023-10-14T13:27:21.195Z,19.46
2023-10-14T13:29:53.420Z,19.35
2023-10-14T13:32:25.953Z,19.11
2023-10-14T13:34:55.107Z,18.97
2023-10-14T13:37:26.268Z,18.82
2023-10-14T13:39:54.585Z,18.93
2023-10-14T13:42:24.547Z,18.94
2023-10-14T13:44:52.793Z,18.88
2023-10-14T13:47:21.747Z,18.77
2023-10-14T13:49:50.091Z,18.54
2023-10-14T13:52:19.260Z,18.54
2023-10-14T13:54:48.848Z,18.21
2023-10-14T13:57:19.281Z,18.20
2023-10-14T13:59:47.629Z,18.29
2023-10-14T14:02:15.926Z,17.97
2023-10-14T14:04:46.175Z,17.69
2023-10-14T14:07:14.648Z,17.66
2023-10-14T14:09:42.993Z,17.50
2023-10-14T14:12:12.806Z,17.29
2023-10-14T14:14:41.069Z,17.12
2023-10-14T14:17:09.248Z,17.06
2023-10-14T14:19:40.892Z,16.91
2023-10-14T14:22:09.572Z,16.88
2023-10-14T14:24:38.082Z,16.85
2023-10-14T14:27:06.252Z,17.00
2023-10-14T14:29:35.796Z,17.08
2023-10-14T14:32:07.005Z,17.08
2023-10-14T14:34:35.884Z,17.03
2023-10-14T14:37:04.651Z,17.20
2023-10-14T14:39:32.905Z,17.36
2023-10-14T14:42:02.845Z,17.46
2023-10-14T14:44:33.821Z,17.64
2023-10-14T14:47:04.433Z,17.77
2023-10-14T14:49:33.400Z,17.82
2023-10-14T14:52:02.219Z,17.87
2023-10-14T14:54:31.443Z,17.86
2023-10-14T14:57:01.107Z,17.92
2023-10-14T14:59:30.887Z,17.90
2023-10-14T15:01:59.132Z,17.80
2023-10-14T15:04:29.098Z,17.85
2023-10-14T15:06:57.685Z,17.90
2023-10-14T15:09:26.164Z,17.87
2023-10-14T15:11:56.425Z,17.85
2023-10-14T15:14:24.943Z,17.68
2023-10-14T15:16:53.226Z,17.45
2023-10-14T15:19:23.515Z,17.22
2023-10-14T15:21:54.286Z,17.03
2023-10-14T15:24:22.533Z,17.16
2023-10-14T15:26:50.721Z,17.10
2023-10-14T15:29:18.893Z,17.19
2023-10-14T15:31:47.752Z,17.16
2023-10-14T15:34:17.836Z,17.16
2023-10-14T15:36:46.602Z,17.01
2023-10-14T15:39:32.185Z,16.94
2023-10-14T15:42:01.676Z,16.57
2023-10-14T15:44:30.719Z,16.66
2023-10-14T15:47:01.019Z,16.81
2023-10-14T15:49:37.268Z,16.74
2023-10-14T15:52:05.929Z,16.76
2023-10-14T15:54:35.927Z,16.73
2023-10-14T15:57:09.722Z,16.69
2023-10-14T15:59:38.538Z,16.77
2023-10-14T16:02:07.091Z,16.60
2023-10-14T16:04:35.865Z,16.69
2023-10-14T16:07:04.363Z,16.71
2023-10-14T16:09:33.240Z,16.65
2023-10-14T16:12:04.769Z,16.73
2023-10-14T16:14:33.139Z,16.70
2023-10-14T16:17:02.264Z,16.57
2023-10-14T16:19:31.446Z,16.44
2023-10-14T16:21:59.740Z,16.32
2023-10-14T16:24:28.032Z,16.26
2023-10-14T16:26:56.235Z,16.21
2023-10-14T16:29:26.249Z,16.05
2023-10-14T16:31:55.830Z,15.95
2023-10-14T16:34:29.189Z,15.92
2023-10-14T16:36:57.963Z,15.93
2023-10-14T16:39:27.326Z,15.98
2023-10-14T16:41:56.157Z,15.89
2023-10-14T16:44:26.467Z,15.91
2023-10-14T16:46:55.397Z,15.91
2023-10-14T16:49:24.982Z,15.61
2023-10-14T16:51:53.624Z,15.68
2023-10-14T16:54:21.962Z,15.75
2023-10-14T16:56:51.408Z,15.68
2023-10-14T16:59:19.936Z,15.78
2023-10-14T17:01:50.566Z,15.62
2023-10-14T17:04:20.687Z,15.47
2023-10-14T17:06:49.029Z,15.31
2023-10-14T17:09:17.250Z,15.26
2023-10-14T17:11:47.988Z,15.18
2023-10-14T17:14:18.160Z,15.17
2023-10-14T17:16:46.604Z,15.02
2023-10-14T17:19:16.490Z,15.09
2023-10-14T17:21:46.582Z,14.93
2023-10-14T17:24:15.577Z,15.05
2023-10-14T17:26:44.426Z,14.99
2023-10-14T17:29:12.595Z,14.84
2023-10-14T17:31:41.068Z,14.93
2023-10-14T17:34:11.264Z,14.80
2023-10-14T17:36:41.656Z,14.78
2023-10-14T17:39:10.340Z,14.50
2023-10-14T17:41:38.685Z,14.56
2023-10-14T17:44:08.226Z,14.45
2023-10-14T17:46:37.087Z,14.47
2023-10-14T17:49:07.031Z,14.46
2023-10-14T17:51:36.997Z,14.46
2023-10-14T17:54:08.004Z,14.35
2023-10-14T17:56:36.207Z,14.42
2023-10-14T17:59:06.101Z,14.44
2023-10-14T18:01:35.376Z,14.48
2023-10-14T18:04:07.207Z,14.22
2023-10-14T18:06:36.770Z,14.27
2023-10-14T18:09:14.628Z,14.36
2023-10-14T18:11:45.715Z,14.28
2023-10-14T18:14:16.280Z,14.22
2023-10-14T18:17:00.711Z,14.28
2023-10-14T18:19:31.440Z,14.15
2023-10-14T18:21:59.675Z,14.19
2023-10-14T18:24:29.728Z,14.19
2023-10-14T18:26:57.916Z,14.32
2023-10-14T18:29:26.553Z,14.37
2023-10-14T18:31:56.259Z,14.12
2023-10-14T18:34:25.682Z,14.05
2023-10-14T18:36:56.695Z,13.96
2023-10-14T18:39:27.455Z,13.69
2023-10-14T18:41:57.356Z,13.66
2023-10-14T18:44:28.135Z,13.69
2023-10-14T18:46:58.164Z,13.59
2023-10-14T18:49:26.685Z,13.43
2023-10-14T18:51:56.189Z,13.31
2023-10-14T18:54:24.319Z,13.23
2023-10-14T18:56:54.699Z,13.09
2023-10-14T18:59:25.460Z,13.13
2023-10-14T19:01:54.137Z,13.08
2023-10-14T19:04:22.519Z,13.18
2023-10-14T19:06:52.643Z,13.04
2023-10-14T19:09:24.812Z,13.09
2023-10-14T19:11:53.356Z,13.08
2023-10-14T19:14:25.903Z,13.00
2023-10-14T19:16:58.001Z,13.01
2023-10-14T19:19:27.244Z,13.02
2023-10-14T19:21:55.541Z,13.05
2023-10-14T19:24:23.698Z,12.93
2023-10-14T19:26:52.898Z,13.08
2023-10-14T19:29:21.174Z,12.96
2023-10-14T19:31:49.945Z,12.87
2023-10-14T19:34:19.805Z,12.75
2023-10-14T19:36:49.068Z,12.71
2023-10-14T19:39:17.353Z,12.74
2023-10-14T19:41:45.808Z,12.75
2023-10-14T19:44:14.874Z,12.70
2023-10-14T19:46:43.073Z,12.60
2023-10-14T19:49:12.214Z,12.62
2023-10-14T19:51:42.628Z,12.55
2023-10-14T19:54:11.149Z,12.57
2023-10-14T19:56:39.985Z,12.51
2023-10-14T19:59:08.410Z,12.64
2023-10-14T20:01:40.268Z,12.70
2023-10-14T20:04:10.398Z,12.49
2023-10-14T20:06:38.969Z,12.41
2023-10-14T20:09:11.024Z,12.49
2023-10-14T20:11:40.023Z,12.50
2023-10-14T20:14:28.377Z,12.39
2023-10-14T20:16:56.761Z,12.39
2023-10-14T20:19:25.636Z,12.32
2023-10-14T20:21:55.404Z,12.33
2023-10-14T20:24:27.838Z,12.20
2023-10-14T20:26:56.017Z,12.11
2023-10-14T20:29:24.982Z,12.09
2023-10-14T20:34:24.036Z,12.05
2023-10-14T20:36:52.416Z,11.96
2023-10-14T20:39:29.451Z,12.07
2023-10-14T20:42:02.436Z,12.08
2023-10-14T20:44:33.555Z,12.00
2023-10-14T20:47:02.132Z,11.80
2023-10-14T20:49:31.716Z,11.86
2023-10-14T20:51:59.890Z,11.80
2023-10-14T20:54:28.132Z,11.88
2023-10-14T20:56:56.344Z,11.96
2023-10-14T20:59:26.452Z,12.01
2023-10-14T21:01:54.773Z,12.09
2023-10-14T21:04:23.889Z,11.90
2023-10-14T21:06:54.242Z,11.91
2023-10-14T21:09:22.926Z,12.03
2023-10-14T21:11:51.211Z,12.05
2023-10-14T21:14:19.434Z,11.93
2023-10-14T21:16:49.497Z,11.91
2023-10-14T21:19:17.865Z,11.87
2023-10-14T21:21:46.097Z,11.83
2023-10-14T21:24:14.275Z,11.75
2023-10-14T21:26:42.398Z,11.59
2023-10-14T21:29:10.638Z,11.61
2023-10-14T21:31:40.917Z,11.39
2023-10-14T21:34:10.999Z,11.26
2023-10-14T21:36:42.477Z,11.39
2023-10-14T21:39:10.742Z,11.49
2023-10-14T21:41:39.140Z,11.43
2023-10-14T21:44:07.570Z,11.42
2023-10-14T21:46:37.930Z,11.29
2023-10-14T21:49:07.506Z,11.34
2023-10-14T21:51:38.013Z,11.36
2023-10-14T21:54:06.918Z,11.36
2023-10-14T21:56:35.167Z,11.46
2023-10-14T21:59:05.538Z,11.38
2023-10-14T22:01:36.466Z,11.35
2023-10-14T22:04:05.956Z,11.28
2023-10-14T22:06:34.305Z,11.19
2023-10-14T22:09:04.569Z,11.34
2023-10-14T22:11:33.466Z,11.31
2023-10-14T22:14:01.623Z,11.27
2023-10-14T22:16:29.996Z,11.25
2023-10-14T22:18:59.044Z,11.18
2023-10-14T22:21:27.925Z,11.20
2023-10-14T22:23:56.235Z,11.27
2023-10-14T22:26:25.994Z,11.23
2023-10-14T22:28:54.755Z,11.03
2023-10-14T22:31:25.770Z,11.03
2023-10-14T22:33:54.549Z,11.12
2023-10-14T22:36:22.745Z,10.99
2023-10-14T22:38:51.788Z,11.15
2023-10-14T22:41:20.852Z,10.99
2023-10-14T22:43:52.802Z,10.97
2023-10-14T22:46:23.075Z,10.98
2023-10-14T22:48:51.338Z,11.00
2023-10-14T22:51:19.599Z,11.05
2023-10-14T22:53:47.815Z,11.08
2023-10-14T22:56:17.091Z,11.04
2023-10-14T22:58:45.615Z,11.10
2023-10-14T23:01:19.377Z,10.96
2023-10-14T23:03:47.992Z,10.92
2023-10-14T23:06:22.851Z,10.88
2023-10-14T23:08:51.162Z,10.69
2023-10-14T23:11:19.472Z,10.64
2023-10-14T23:13:48.870Z,10.50
2023-10-14T23:16:18.954Z,10.57
2023-10-14T23:18:48.111Z,10.62
2023-10-14T23:21:16.237Z,10.62
2023-10-14T23:23:44.444Z,10.59
2023-10-14T23:26:12.637Z,10.40
2023-10-14T23:28:40.803Z,10.40
2023-10-14T23:31:09.436Z,10.52
2023-10-14T23:33:43.108Z,10.58
2023-10-14T23:36:11.554Z,10.53
2023-10-14T23:38:39.871Z,10.39
2023-10-14T23:41:09.150Z,10.48
2023-10-14T23:43:40.460Z,10.63
2023-10-14T23:46:10.101Z,10.66
2023-10-14T23:48:39.723Z,10.59
2023-10-14T23:51:08.746Z,10.62
2023-10-14T23:53:36.957Z,10.55
2023-10-14T23:56:07.002Z,10.55
2023-10-14T23:58:35.456Z,10.61
